Aviation Digital Data Service (ADDS)

Output produced by METARs form (0507 UTC 16 February 2019)
found at http://www.aviationweather.gov/metar/data/
 
Forecast for: LUKK (CHISINAU INTL , MD)
Text: TAF LUKK 152320Z 1600/1624 31008KT 9999 BKN025
Forecast period: 0000 UTC 16 February 2019 to 0000 UTC 17 February 2019
Forecast type: FROM: standard forecast or significant change
Winds: from the NW (310 degrees) at 9 MPH (8 knots; 4.1 m/s)
Visibility: 6 or more miles 10+ km)
Ceiling: 2500 feet AGL
Clouds: broken clouds at 2500 feet AGL
Weather: no significant weather forecast for this period
Text: TEMPO 1606/1610 BKN009
Forecast period: 0600 to 1000 UTC 16 February 2019
Forecast type: TEMPORARY: The following changes expected for less than half the time period
Visibility: missing
Ceiling: 900 feet AGL
Clouds: broken clouds at 900 feet AGL
Weather: no significant weather forecast for this period